01:11
Airports
Links
Donate
Help keep this website running!
PayPal
Bitcoin
METAR
PHNL 230053Z 05013G22KT 10SM FEW028 FEW042 29/16 A3001 RMK AO2 SLP162 T02940156
Current Weather Conditions at PHNL
VFR 00:53:00 23-05-17
Automated station
Altimeter:30.01 hg
Temp:29.4°c 84°f
Dew point:15.6°c 59°f
Wind:13 knots, 15 mph, 7 m/s, from 50°
Visibility:10.0 statute miles
4200(FEW) A few
2800(FEW) A few
Past METAR reports
VFR 23:53:00 22-05-17
Automated station
Altimeter:30.02 hg
Temp:29.4°c 84°f
Dew point:16.1°c 61°f
Wind:18 knots, 20.7 mph, 9 m/s, from 50°
Visibility:10.0 statute miles
4400(SCT) Scattered
3000(FEW) A few
PHNL 222353Z 05018G31KT 10SM FEW030 SCT044 29/16 A3002 RMK AO2 PK WND 06031/2345 SLP167 T02940161 10306 20261 56013
VFR 22:53:00 22-05-17
Automated station
Altimeter:30.03 hg
Temp:29.4°c 84°f
Dew point:16.7°c 61°f
Wind:14 knots, 16.1 mph, 7 m/s, from 50°
Visibility:10.0 statute miles
4800(SCT) Scattered
3900(SCT) Scattered
2800(FEW) A few
PHNL 222253Z COR 05014G22KT 10SM FEW028 SCT039 SCT048 29/17 A3003 RMK AO2 SLP169 T02940167
VFR 21:53:00 22-05-17
Automated station
Altimeter:30.05 hg
Temp:29.4°c 84°f
Dew point:16.1°c 61°f
Wind:15 knots, 17.3 mph, 8 m/s, from 40°
Visibility:10.0 statute miles
20000(BKN) Broken
5500(SCT) Scattered
4200(SCT) Scattered
2800(FEW) A few
PHNL 222153Z COR 04015G22KT 10SM FEW028 SCT042 SCT055 BKN200 29/16 A3005 RMK AO2 SLP177 VCSH N-NE T02940161
VFR 20:53:00 22-05-17
Automated station
Altimeter:30.06 hg
Temp:28.3°c 82°f
Dew point:16.1°c 61°f
Wind:12 knots, 13.8 mph, 6 m/s, from 50°
Visibility:10.0 statute miles
5500(SCT) Scattered
3000(SCT) Scattered
PHNL 222053Z 05012G20KT 10SM SCT030 SCT055 28/16 A3006 RMK AO2 SLP180 T02830161 50001
VFR 19:53:00 22-05-17
Automated station
Altimeter:30.07 hg
Temp:28.3°c 82°f
Dew point:16.1°c 61°f
Wind:18 knots, 20.7 mph, 9 m/s, from 70°
Visibility:10.0 statute miles
5000(SCT) Scattered
3800(SCT) Scattered
3000(SCT) Scattered
PHNL 221953Z 07018G23KT 10SM SCT030 SCT038 SCT050 28/16 A3007 RMK AO2 SLP182 T02830161
TAF
PHNL 222333Z 2300/2406 06016G23KT P6SM VCSH SCT030 SCT050 FM230600 05012KT P6SM VCSH FEW025 BKN045 FM232000 05016G24KT P6SM FEW025 SCT050 FM240400 06012KT P6SM VCSH SCT025 BKN050
Forecast at PHNL
00:00 23-05-17 to 06:00 23-05-17
VCSH
Wind:16 Knots from 60°
Visibility:6.21 statute miles
3000SCT Scattered
5000SCT Scattered
FM 06:00 23-05-17 to 20:00 23-05-17
VCSH
Wind:12 Knots from 50°
Visibility:6.21 statute miles
2500FEW A few
4500BKN Broken
FM 20:00 23-05-17 to 04:00 24-05-17
Wind:16 Knots from 50°
Visibility:6.21 statute miles
2500FEW A few
5000SCT Scattered
FM 04:00 24-05-17 to 06:00 24-05-17
VCSH
Wind:12 Knots from 60°
Visibility:6.21 statute miles
2500SCT Scattered
5000BKN Broken